Kearneysville, WV

5:54 AM EDT on November 01, 2014 (GMT -0400)
Eastern W Va Regional-Shepherd | Change Station
CLOSE
Current Station
Airport
Location: Martinsburg,
Elevation: 531 ft
Nearby Weather Stations

Elev 531 ft 39.40 °N, 77.98 °W | Updated 1 hour ago

Overcast
Overcast
47 °F
Feels Like 47 °F
N
10
Wind Variable Wind from North

Today
High -- | Low -- °F
--% Chance of Precip.
Yesterday
High -- | Low -- °F
Precip. -- in
7:39 AM 6:10 PM
Waxing Gibbous, 65% visible
Pressure 29.81 in
Visibility 10.0 miles
Clouds Mostly Cloudy 6000 ft
Overcast 8000 ft
Dew Point 34 °F
Humidity 61%
Rainfall 0.00 in
Snow Depth Not available.
UV 0 out of 12
Pollen .10 out of 12
Air Quality Not available.
Flu Activity Not available.
METAR KMRB 010853Z AUTO 36009KT 10SM BKN060 OVC080 08/01 A2981 RMK AO2 SLP095 T00830011 58008 TSNO

More Conditions Fewer Conditions

Pressure 29.81 in
Visibility 10.0 miles
Clouds Mostly Cloudy 6000 ft
Overcast 8000 ft
Dew Point 34 °F
Humidity 61%
Rainfall 0.00 in
Snow Depth Not available.
UV 0 out of 12
Pollen .10 out of 12
Air Quality Not available.
Flu Activity Not available.
METAR KMRB 010853Z AUTO 36009KT 10SM BKN060 OVC080 08/01 A2981 RMK AO2 SLP095 T00830011 58008 TSNO

More Conditions Fewer Conditions

10-Day Weather Forecast

Almanac

Astronomy

Nov. 01, 2014 Rise Set
Actual Time
Civil Twilight
Nautical Twilight
Astronomical Twilight
Moon
Length of Visible Light
Length of Day
Tomorrow will be .
, % of the Moon is Illuminated

Today's Extremes

State Highs State Lows

Community

WunderPhotos

Upload Photos

1,766,872 photos uploaded!

WunderBlogs® & News

Nearby

Air Quality

  Air Quality AQ Index Pollutant
Not available.

Snow Depth

Station Depth Elevation

Earthquake Activity

City Distance Mag. Time & Date
Minimum magnitude displayed is 2.5.

Coastal Water Temperatures

Place Temperature

Nearby Weather Stations